sensor_id;sensor_type;location;lat;lon;timestamp;pressure;altitude;pressure_sealevel;temperature
45850;BMP180;10739;52.198;20.908;2024-01-10T00:02:20;102092.00;;;-5.60
45850;BMP180;10739;52.198;20.908;2024-01-10T00:04:46;102069.00;;;-5.30
45850;BMP180;10739;52.198;20.908;2024-01-10T00:07:12;102070.00;;;-5.10
45850;BMP180;10739;52.198;20.908;2024-01-10T00:09:39;102069.00;;;-5.30
45850;BMP180;10739;52.198;20.908;2024-01-10T00:12:06;102048.00;;;-5.20
45850;BMP180;10739;52.198;20.908;2024-01-10T00:14:32;102051.00;;;-5.20
45850;BMP180;10739;52.198;20.908;2024-01-10T00:16:59;102066.00;;;-5.60
45850;BMP180;10739;52.198;20.908;2024-01-10T00:19:25;102061.00;;;-5.70
45850;BMP180;10739;52.198;20.908;2024-01-10T00:21:51;102065.00;;;-5.60
45850;BMP180;10739;52.198;20.908;2024-01-10T00:24:17;102065.00;;;-5.40
45850;BMP180;10739;52.198;20.908;2024-01-10T00:26:44;102061.00;;;-5.20
45850;BMP180;10739;52.198;20.908;2024-01-10T00:29:10;102053.00;;;-5.30
45850;BMP180;10739;52.198;20.908;2024-01-10T00:31:37;102062.00;;;-5.50
45850;BMP180;10739;52.198;20.908;2024-01-10T00:34:03;102056.00;;;-5.30
45850;BMP180;10739;52.198;20.908;2024-01-10T00:36:29;102064.00;;;-5.20
45850;BMP180;10739;52.198;20.908;2024-01-10T00:38:56;102067.00;;;-5.20
45850;BMP180;10739;52.198;20.908;2024-01-10T00:41:22;102072.00;;;-5.40
45850;BMP180;10739;52.198;20.908;2024-01-10T00:43:48;102077.00;;;-5.60
45850;BMP180;10739;52.198;20.908;2024-01-10T00:46:15;102071.00;;;-5.60
45850;BMP180;10739;52.198;20.908;2024-01-10T00:48:41;102065.00;;;-5.70
45850;BMP180;10739;52.198;20.908;2024-01-10T00:51:07;102071.00;;;-5.70
45850;BMP180;10739;52.198;20.908;2024-01-10T00:53:35;102068.00;;;-5.70
45850;BMP180;10739;52.198;20.908;2024-01-10T00:56:01;102073.00;;;-5.90
45850;BMP180;10739;52.198;20.908;2024-01-10T00:58:28;102074.00;;;-5.90
45850;BMP180;10739;52.198;20.908;2024-01-10T01:00:54;102070.00;;;-5.60
45850;BMP180;10739;52.198;20.908;2024-01-10T01:03:20;102068.00;;;-5.80
45850;BMP180;10739;52.198;20.908;2024-01-10T01:05:46;102064.00;;;-5.70
45850;BMP180;10739;52.198;20.908;2024-01-10T01:08:13;102061.00;;;-5.50
45850;BMP180;10739;52.198;20.908;2024-01-10T01:10:39;102063.00;;;-5.50
45850;BMP180;10739;52.198;20.908;2024-01-10T01:13:05;102071.00;;;-5.50
45850;BMP180;10739;52.198;20.908;2024-01-10T01:15:32;102074.00;;;-5.50
45850;BMP180;10739;52.198;20.908;2024-01-10T01:17:58;102061.00;;;-6.00
45850;BMP180;10739;52.198;20.908;2024-01-10T01:20:24;102058.00;;;-5.80
45850;BMP180;10739;52.198;20.908;2024-01-10T01:22:51;102058.00;;;-5.60
45850;BMP180;10739;52.198;20.908;2024-01-10T01:25:17;102065.00;;;-6.00
45850;BMP180;10739;52.198;20.908;2024-01-10T01:27:43;102046.00;;;-5.80
45850;BMP180;10739;52.198;20.908;2024-01-10T01:30:10;102039.00;;;-5.40
45850;BMP180;10739;52.198;20.908;2024-01-10T01:32:37;102047.00;;;-5.70
45850;BMP180;10739;52.198;20.908;2024-01-10T01:35:07;102038.00;;;-5.40
45850;BMP180;10739;52.198;20.908;2024-01-10T01:37:33;102033.00;;;-5.40
45850;BMP180;10739;52.198;20.908;2024-01-10T01:40:00;102028.00;;;-5.30
45850;BMP180;10739;52.198;20.908;2024-01-10T01:42:26;102023.00;;;-5.30
45850;BMP180;10739;52.198;20.908;2024-01-10T01:44:53;102026.00;;;-5.30
45850;BMP180;10739;52.198;20.908;2024-01-10T01:47:19;102031.00;;;-5.20
45850;BMP180;10739;52.198;20.908;2024-01-10T01:49:45;102024.00;;;-5.10
45850;BMP180;10739;52.198;20.908;2024-01-10T01:52:12;102023.00;;;-5.50
45850;BMP180;10739;52.198;20.908;2024-01-10T01:54:40;102012.00;;;-5.40
45850;BMP180;10739;52.198;20.908;2024-01-10T01:57:07;102037.00;;;-5.70
45850;BMP180;10739;52.198;20.908;2024-01-10T01:59:34;102018.00;;;-5.50
45850;BMP180;10739;52.198;20.908;2024-01-10T02:02:02;102017.00;;;-5.80
45850;BMP180;10739;52.198;20.908;2024-01-10T02:04:31;102016.00;;;-5.40
45850;BMP180;10739;52.198;20.908;2024-01-10T02:06:58;102015.00;;;-5.40
45850;BMP180;10739;52.198;20.908;2024-01-10T02:09:26;102012.00;;;-5.30
45850;BMP180;10739;52.198;20.908;2024-01-10T02:11:53;102023.00;;;-5.70
45850;BMP180;10739;52.198;20.908;2024-01-10T02:14:20;102025.00;;;-5.70
45850;BMP180;10739;52.198;20.908;2024-01-10T02:16:46;102026.00;;;-5.50
45850;BMP180;10739;52.198;20.908;2024-01-10T02:19:23;102018.00;;;-5.60
45850;BMP180;10739;52.198;20.908;2024-01-10T02:21:50;102022.00;;;-5.50
45850;BMP180;10739;52.198;20.908;2024-01-10T02:24:16;102023.00;;;-5.60
45850;BMP180;10739;52.198;20.908;2024-01-10T02:26:43;102027.00;;;-5.90
45850;BMP180;10739;52.198;20.908;2024-01-10T02:29:09;102024.00;;;-5.60
45850;BMP180;10739;52.198;20.908;2024-01-10T02:31:36;102016.00;;;-5.70
45850;BMP180;10739;52.198;20.908;2024-01-10T02:34:02;102020.00;;;-5.50
45850;BMP180;10739;52.198;20.908;2024-01-10T02:36:29;102018.00;;;-6.00
45850;BMP180;10739;52.198;20.908;2024-01-10T02:38:55;102018.00;;;-5.90
45850;BMP180;10739;52.198;20.908;2024-01-10T02:41:22;102016.00;;;-5.90
45850;BMP180;10739;52.198;20.908;2024-01-10T02:43:48;102013.00;;;-5.80
45850;BMP180;10739;52.198;20.908;2024-01-10T02:46:15;102011.00;;;-6.00
45850;BMP180;10739;52.198;20.908;2024-01-10T02:48:41;102011.00;;;-6.00
45850;BMP180;10739;52.198;20.908;2024-01-10T02:51:07;102011.00;;;-6.00
45850;BMP180;10739;52.198;20.908;2024-01-10T02:53:33;101997.00;;;-5.90
45850;BMP180;10739;52.198;20.908;2024-01-10T02:56:00;102007.00;;;-6.40
45850;BMP180;10739;52.198;20.908;2024-01-10T02:58:26;101990.00;;;-5.90
45850;BMP180;10739;52.198;20.908;2024-01-10T03:00:54;101988.00;;;-5.60
45850;BMP180;10739;52.198;20.908;2024-01-10T03:03:20;101990.00;;;-5.80
45850;BMP180;10739;52.198;20.908;2024-01-10T03:05:46;101981.00;;;-6.00
45850;BMP180;10739;52.198;20.908;2024-01-10T03:08:12;101980.00;;;-5.80
45850;BMP180;10739;52.198;20.908;2024-01-10T03:10:39;101973.00;;;-5.40
45850;BMP180;10739;52.198;20.908;2024-01-10T03:13:05;101975.00;;;-5.60
45850;BMP180;10739;52.198;20.908;2024-01-10T03:15:31;101961.00;;;-5.60
45850;BMP180;10739;52.198;20.908;2024-01-10T03:17:58;101954.00;;;-5.40
45850;BMP180;10739;52.198;20.908;2024-01-10T03:20:24;101961.00;;;-5.40
45850;BMP180;10739;52.198;20.908;2024-01-10T03:22:50;101973.00;;;-5.30
45850;BMP180;10739;52.198;20.908;2024-01-10T03:25:17;101972.00;;;-5.70
45850;BMP180;10739;52.198;20.908;2024-01-10T03:27:43;101953.00;;;-6.20
45850;BMP180;10739;52.198;20.908;2024-01-10T03:30:10;101953.00;;;-6.10
45850;BMP180;10739;52.198;20.908;2024-01-10T03:32:36;101962.00;;;-5.90
45850;BMP180;10739;52.198;20.908;2024-01-10T03:35:03;101959.00;;;-6.00
45850;BMP180;10739;52.198;20.908;2024-01-10T03:37:29;101956.00;;;-6.00
45850;BMP180;10739;52.198;20.908;2024-01-10T03:39:56;101961.00;;;-5.90
45850;BMP180;10739;52.198;20.908;2024-01-10T03:42:22;101961.00;;;-6.10
45850;BMP180;10739;52.198;20.908;2024-01-10T03:44:48;101957.00;;;-6.10
45850;BMP180;10739;52.198;20.908;2024-01-10T03:47:15;101953.00;;;-6.10
45850;BMP180;10739;52.198;20.908;2024-01-10T03:49:41;101945.00;;;-6.00
45850;BMP180;10739;52.198;20.908;2024-01-10T03:52:07;101959.00;;;-5.90
45850;BMP180;10739;52.198;20.908;2024-01-10T03:54:34;101951.00;;;-5.90
45850;BMP180;10739;52.198;20.908;2024-01-10T03:57:00;101951.00;;;-6.10
45850;BMP180;10739;52.198;20.908;2024-01-10T03:59:26;101952.00;;;-6.20
45850;BMP180;10739;52.198;20.908;2024-01-10T04:01:53;101946.00;;;-5.80
45850;BMP180;10739;52.198;20.908;2024-01-10T04:04:19;101941.00;;;-6.20
45850;BMP180;10739;52.198;20.908;2024-01-10T04:06:45;101942.00;;;-6.10
45850;BMP180;10739;52.198;20.908;2024-01-10T04:09:12;101938.00;;;-6.30
45850;BMP180;10739;52.198;20.908;2024-01-10T04:11:38;101932.00;;;-6.20
45850;BMP180;10739;52.198;20.908;2024-01-10T04:14:05;101926.00;;;-6.40
45850;BMP180;10739;52.198;20.908;2024-01-10T04:16:32;101915.00;;;-6.20
45850;BMP180;10739;52.198;20.908;2024-01-10T04:18:58;101915.00;;;-6.30
45850;BMP180;10739;52.198;20.908;2024-01-10T04:21:24;101928.00;;;-6.10
45850;BMP180;10739;52.198;20.908;2024-01-10T04:23:50;101927.00;;;-6.10
45850;BMP180;10739;52.198;20.908;2024-01-10T04:26:18;101915.00;;;-6.40
45850;BMP180;10739;52.198;20.908;2024-01-10T04:28:44;101917.00;;;-6.20
45850;BMP180;10739;52.198;20.908;2024-01-10T04:31:11;101921.00;;;-5.80
45850;BMP180;10739;52.198;20.908;2024-01-10T04:33:37;101913.00;;;-6.10
45850;BMP180;10739;52.198;20.908;2024-01-10T04:36:03;101908.00;;;-6.30
45850;BMP180;10739;52.198;20.908;2024-01-10T04:38:30;101904.00;;;-6.30
45850;BMP180;10739;52.198;20.908;2024-01-10T04:40:56;101909.00;;;-6.00
45850;BMP180;10739;52.198;20.908;2024-01-10T04:43:22;101921.00;;;-6.10
45850;BMP180;10739;52.198;20.908;2024-01-10T04:45:49;101919.00;;;-6.00
45850;BMP180;10739;52.198;20.908;2024-01-10T04:48:15;101918.00;;;-6.10
45850;BMP180;10739;52.198;20.908;2024-01-10T04:50:41;101922.00;;;-5.80
45850;BMP180;10739;52.198;20.908;2024-01-10T04:53:08;101925.00;;;-6.10
45850;BMP180;10739;52.198;20.908;2024-01-10T04:55:34;101928.00;;;-6.10
45850;BMP180;10739;52.198;20.908;2024-01-10T04:58:00;101926.00;;;-6.20
45850;BMP180;10739;52.198;20.908;2024-01-10T05:00:27;101930.00;;;-6.20
45850;BMP180;10739;52.198;20.908;2024-01-10T05:02:54;101922.00;;;-6.20
45850;BMP180;10739;52.198;20.908;2024-01-10T05:05:20;101923.00;;;-6.30
45850;BMP180;10739;52.198;20.908;2024-01-10T05:07:50;101924.00;;;-6.30
45850;BMP180;10739;52.198;20.908;2024-01-10T05:10:19;101924.00;;;-6.20
45850;BMP180;10739;52.198;20.908;2024-01-10T05:12:45;101938.00;;;-6.40
45850;BMP180;10739;52.198;20.908;2024-01-10T05:15:11;101945.00;;;-6.10
45850;BMP180;10739;52.198;20.908;2024-01-10T05:17:37;101944.00;;;-6.20
45850;BMP180;10739;52.198;20.908;2024-01-10T05:20:05;101943.00;;;-6.10
45850;BMP180;10739;52.198;20.908;2024-01-10T05:22:32;101950.00;;;-6.10
45850;BMP180;10739;52.198;20.908;2024-01-10T05:24:58;101940.00;;;-6.30
45850;BMP180;10739;52.198;20.908;2024-01-10T05:27:24;101951.00;;;-6.30
45850;BMP180;10739;52.198;20.908;2024-01-10T05:29:50;101942.00;;;-6.50
45850;BMP180;10739;52.198;20.908;2024-01-10T05:32:17;101922.00;;;-6.30
45850;BMP180;10739;52.198;20.908;2024-01-10T05:34:44;101927.00;;;-6.40
45850;BMP180;10739;52.198;20.908;2024-01-10T05:37:11;101925.00;;;-6.60
45850;BMP180;10739;52.198;20.908;2024-01-10T05:39:37;101929.00;;;-6.40
45850;BMP180;10739;52.198;20.908;2024-01-10T05:42:04;101932.00;;;-6.30
45850;BMP180;10739;52.198;20.908;2024-01-10T05:44:31;101928.00;;;-6.60
45850;BMP180;10739;52.198;20.908;2024-01-10T05:46:57;101932.00;;;-6.40
45850;BMP180;10739;52.198;20.908;2024-01-10T05:49:26;101938.00;;;-6.70
45850;BMP180;10739;52.198;20.908;2024-01-10T05:51:52;101935.00;;;-6.40
45850;BMP180;10739;52.198;20.908;2024-01-10T05:54:18;101938.00;;;-6.30
45850;BMP180;10739;52.198;20.908;2024-01-10T05:56:45;101943.00;;;-6.60
45850;BMP180;10739;52.198;20.908;2024-01-10T05:59:11;101946.00;;;-6.60
45850;BMP180;10739;52.198;20.908;2024-01-10T06:01:38;101929.00;;;-6.70
45850;BMP180;10739;52.198;20.908;2024-01-10T06:04:05;101942.00;;;-6.40
45850;BMP180;10739;52.198;20.908;2024-01-10T06:06:31;101932.00;;;-6.70
45850;BMP180;10739;52.198;20.908;2024-01-10T06:08:58;101926.00;;;-6.70
45850;BMP180;10739;52.198;20.908;2024-01-10T06:11:25;101922.00;;;-6.60
45850;BMP180;10739;52.198;20.908;2024-01-10T06:13:51;101920.00;;;-6.70
45850;BMP180;10739;52.198;20.908;2024-01-10T06:16:17;101916.00;;;-6.70
45850;BMP180;10739;52.198;20.908;2024-01-10T06:18:44;101900.00;;;-6.80
45850;BMP180;10739;52.198;20.908;2024-01-10T06:21:10;101904.00;;;-6.50
45850;BMP180;10739;52.198;20.908;2024-01-10T06:23:40;101893.00;;;-6.00
45850;BMP180;10739;52.198;20.908;2024-01-10T06:26:06;101902.00;;;-6.10
45850;BMP180;10739;52.198;20.908;2024-01-10T06:28:33;101908.00;;;-5.90
45850;BMP180;10739;52.198;20.908;2024-01-10T06:30:59;101909.00;;;-6.10
45850;BMP180;10739;52.198;20.908;2024-01-10T06:33:25;101916.00;;;-6.20
45850;BMP180;10739;52.198;20.908;2024-01-10T06:35:52;101917.00;;;-6.40
45850;BMP180;10739;52.198;20.908;2024-01-10T06:38:19;101925.00;;;-6.40
45850;BMP180;10739;52.198;20.908;2024-01-10T06:40:46;101918.00;;;-6.20
45850;BMP180;10739;52.198;20.908;2024-01-10T06:43:14;101923.00;;;-6.10
45850;BMP180;10739;52.198;20.908;2024-01-10T06:45:41;101922.00;;;-6.50
45850;BMP180;10739;52.198;20.908;2024-01-10T06:48:08;101935.00;;;-6.40
45850;BMP180;10739;52.198;20.908;2024-01-10T06:50:35;101927.00;;;-6.10
45850;BMP180;10739;52.198;20.908;2024-01-10T06:53:02;101920.00;;;-6.30
45850;BMP180;10739;52.198;20.908;2024-01-10T06:55:28;101924.00;;;-6.70
45850;BMP180;10739;52.198;20.908;2024-01-10T06:57:55;101943.00;;;-6.50
45850;BMP180;10739;52.198;20.908;2024-01-10T07:00:22;101939.00;;;-6.50
45850;BMP180;10739;52.198;20.908;2024-01-10T07:02:49;101940.00;;;-6.50
45850;BMP180;10739;52.198;20.908;2024-01-10T07:05:16;101941.00;;;-6.60
45850;BMP180;10739;52.198;20.908;2024-01-10T07:07:42;101930.00;;;-6.50
45850;BMP180;10739;52.198;20.908;2024-01-10T07:10:09;101932.00;;;-6.40
45850;BMP180;10739;52.198;20.908;2024-01-10T07:12:36;101927.00;;;-6.50
45850;BMP180;10739;52.198;20.908;2024-01-10T07:15:03;101938.00;;;-6.60
45850;BMP180;10739;52.198;20.908;2024-01-10T07:17:30;101941.00;;;-6.40
45850;BMP180;10739;52.198;20.908;2024-01-10T07:19:59;101941.00;;;-6.50
45850;BMP180;10739;52.198;20.908;2024-01-10T07:22:29;101935.00;;;-6.70
45850;BMP180;10739;52.198;20.908;2024-01-10T07:24:55;101939.00;;;-6.40
45850;BMP180;10739;52.198;20.908;2024-01-10T07:27:23;101942.00;;;-6.50
45850;BMP180;10739;52.198;20.908;2024-01-10T07:29:49;101938.00;;;-6.30
45850;BMP180;10739;52.198;20.908;2024-01-10T07:32:15;101935.00;;;-6.50
45850;BMP180;10739;52.198;20.908;2024-01-10T07:34:41;101931.00;;;-6.40
45850;BMP180;10739;52.198;20.908;2024-01-10T07:37:08;101934.00;;;-6.20
45850;BMP180;10739;52.198;20.908;2024-01-10T07:39:35;101926.00;;;-6.10
45850;BMP180;10739;52.198;20.908;2024-01-10T07:42:01;101931.00;;;-5.90
45850;BMP180;10739;52.198;20.908;2024-01-10T07:44:28;101935.00;;;-6.20
45850;BMP180;10739;52.198;20.908;2024-01-10T07:46:54;101932.00;;;-6.20
45850;BMP180;10739;52.198;20.908;2024-01-10T07:49:21;101929.00;;;-5.90
45850;BMP180;10739;52.198;20.908;2024-01-10T07:51:50;101938.00;;;-6.10
45850;BMP180;10739;52.198;20.908;2024-01-10T07:54:17;101939.00;;;-6.00
45850;BMP180;10739;52.198;20.908;2024-01-10T07:56:43;101933.00;;;-5.90
45850;BMP180;10739;52.198;20.908;2024-01-10T07:59:09;101926.00;;;-5.70
45850;BMP180;10739;52.198;20.908;2024-01-10T08:01:36;101926.00;;;-5.80
45850;BMP180;10739;52.198;20.908;2024-01-10T08:04:03;101937.00;;;-5.60
45850;BMP180;10739;52.198;20.908;2024-01-10T08:06:33;101928.00;;;-5.30
45850;BMP180;10739;52.198;20.908;2024-01-10T08:09:01;101919.00;;;-5.20
45850;BMP180;10739;52.198;20.908;2024-01-10T08:11:30;101932.00;;;-5.40
45850;BMP180;10739;52.198;20.908;2024-01-10T08:13:56;101932.00;;;-5.20
45850;BMP180;10739;52.198;20.908;2024-01-10T08:16:22;101930.00;;;-5.40
45850;BMP180;10739;52.198;20.908;2024-01-10T08:18:49;101928.00;;;-5.20
45850;BMP180;10739;52.198;20.908;2024-01-10T08:21:15;101937.00;;;-5.30
45850;BMP180;10739;52.198;20.908;2024-01-10T08:23:42;101933.00;;;-5.30
45850;BMP180;10739;52.198;20.908;2024-01-10T08:26:08;101931.00;;;-5.10
45850;BMP180;10739;52.198;20.908;2024-01-10T08:28:34;101934.00;;;-5.10
45850;BMP180;10739;52.198;20.908;2024-01-10T08:31:00;101928.00;;;-5.10
45850;BMP180;10739;52.198;20.908;2024-01-10T08:33:27;101940.00;;;-5.40
45850;BMP180;10739;52.198;20.908;2024-01-10T08:35:53;101935.00;;;-5.10
45850;BMP180;10739;52.198;20.908;2024-01-10T08:38:19;101925.00;;;-5.50
45850;BMP180;10739;52.198;20.908;2024-01-10T08:40:46;101937.00;;;-5.00
45850;BMP180;10739;52.198;20.908;2024-01-10T08:43:13;101920.00;;;-4.80
45850;BMP180;10739;52.198;20.908;2024-01-10T08:45:39;101935.00;;;-5.10
45850;BMP180;10739;52.198;20.908;2024-01-10T08:48:06;101918.00;;;-5.20
45850;BMP180;10739;52.198;20.908;2024-01-10T08:50:36;101925.00;;;-4.80
45850;BMP180;10739;52.198;20.908;2024-01-10T08:53:03;101926.00;;;-5.10
45850;BMP180;10739;52.198;20.908;2024-01-10T08:55:34;101911.00;;;-5.20
45850;BMP180;10739;52.198;20.908;2024-01-10T08:58:03;101916.00;;;-5.20
45850;BMP180;10739;52.198;20.908;2024-01-10T09:00:30;101925.00;;;-5.20
45850;BMP180;10739;52.198;20.908;2024-01-10T09:02:57;101924.00;;;-4.80
45850;BMP180;10739;52.198;20.908;2024-01-10T09:05:23;101925.00;;;-4.50
45850;BMP180;10739;52.198;20.908;2024-01-10T09:07:50;101928.00;;;-4.90
45850;BMP180;10739;52.198;20.908;2024-01-10T09:10:16;101929.00;;;-4.40
45850;BMP180;10739;52.198;20.908;2024-01-10T09:12:43;101926.00;;;-4.20
45850;BMP180;10739;52.198;20.908;2024-01-10T09:15:12;101932.00;;;-4.00
45850;BMP180;10739;52.198;20.908;2024-01-10T09:17:42;101941.00;;;-4.00
45850;BMP180;10739;52.198;20.908;2024-01-10T09:20:09;101945.00;;;-3.60
45850;BMP180;10739;52.198;20.908;2024-01-10T09:22:39;101934.00;;;-4.30
45850;BMP180;10739;52.198;20.908;2024-01-10T09:25:06;101943.00;;;-4.00
45850;BMP180;10739;52.198;20.908;2024-01-10T09:27:33;101932.00;;;-3.40
45850;BMP180;10739;52.198;20.908;2024-01-10T09:30:01;101934.00;;;-3.10
45850;BMP180;10739;52.198;20.908;2024-01-10T09:32:28;101924.00;;;-3.70
45850;BMP180;10739;52.198;20.908;2024-01-10T09:34:55;101925.00;;;-3.50
45850;BMP180;10739;52.198;20.908;2024-01-10T09:37:22;101931.00;;;-4.30
45850;BMP180;10739;52.198;20.908;2024-01-10T09:39:49;101917.00;;;-3.90
45850;BMP180;10739;52.198;20.908;2024-01-10T09:42:16;101924.00;;;-3.50
45850;BMP180;10739;52.198;20.908;2024-01-10T09:44:42;101921.00;;;-3.30
45850;BMP180;10739;52.198;20.908;2024-01-10T09:47:09;101926.00;;;-3.20
45850;BMP180;10739;52.198;20.908;2024-01-10T09:49:35;101923.00;;;-3.40
45850;BMP180;10739;52.198;20.908;2024-01-10T09:52:04;101927.00;;;-2.90
45850;BMP180;10739;52.198;20.908;2024-01-10T09:54:35;101925.00;;;-3.60
45850;BMP180;10739;52.198;20.908;2024-01-10T09:57:03;101921.00;;;-3.30
45850;BMP180;10739;52.198;20.908;2024-01-10T09:59:30;101933.00;;;-3.30
45850;BMP180;10739;52.198;20.908;2024-01-10T10:01:57;101925.00;;;-3.00
45850;BMP180;10739;52.198;20.908;2024-01-10T10:04:28;101928.00;;;-2.60
45850;BMP180;10739;52.198;20.908;2024-01-10T10:07:01;101929.00;;;-2.60
45850;BMP180;10739;52.198;20.908;2024-01-10T10:09:29;101934.00;;;-2.90
45850;BMP180;10739;52.198;20.908;2024-01-10T10:11:58;101927.00;;;-3.50
45850;BMP180;10739;52.198;20.908;2024-01-10T10:14:28;101925.00;;;-3.40
45850;BMP180;10739;52.198;20.908;2024-01-10T10:16:54;101921.00;;;-3.90
45850;BMP180;10739;52.198;20.908;2024-01-10T10:19:25;101924.00;;;-3.40
45850;BMP180;10739;52.198;20.908;2024-01-10T10:21:51;101919.00;;;-3.10
45850;BMP180;10739;52.198;20.908;2024-01-10T10:24:17;101911.00;;;-3.00
45850;BMP180;10739;52.198;20.908;2024-01-10T10:26:44;101917.00;;;-3.00
45850;BMP180;10739;52.198;20.908;2024-01-10T10:29:10;101917.00;;;-3.10
45850;BMP180;10739;52.198;20.908;2024-01-10T10:31:37;101907.00;;;-3.00
45850;BMP180;10739;52.198;20.908;2024-01-10T10:34:03;101898.00;;;-2.60
45850;BMP180;10739;52.198;20.908;2024-01-10T10:36:32;101900.00;;;-2.90
45850;BMP180;10739;52.198;20.908;2024-01-10T10:39:06;101880.00;;;-2.80
45850;BMP180;10739;52.198;20.908;2024-01-10T10:41:39;101886.00;;;-3.00
45850;BMP180;10739;52.198;20.908;2024-01-10T10:44:10;101883.00;;;-2.80
45850;BMP180;10739;52.198;20.908;2024-01-10T10:46:38;101891.00;;;-3.40
45850;BMP180;10739;52.198;20.908;2024-01-10T10:49:11;101863.00;;;-3.50
45850;BMP180;10739;52.198;20.908;2024-01-10T10:51:41;101881.00;;;-3.20
45850;BMP180;10739;52.198;20.908;2024-01-10T10:54:09;101876.00;;;-3.10
45850;BMP180;10739;52.198;20.908;2024-01-10T10:56:37;101871.00;;;-2.80
45850;BMP180;10739;52.198;20.908;2024-01-10T10:59:05;101872.00;;;-2.40
45850;BMP180;10739;52.198;20.908;2024-01-10T11:01:33;101870.00;;;-2.50
45850;BMP180;10739;52.198;20.908;2024-01-10T11:04:00;101864.00;;;-2.40
45850;BMP180;10739;52.198;20.908;2024-01-10T11:06:27;101869.00;;;-2.50
45850;BMP180;10739;52.198;20.908;2024-01-10T11:09:07;101857.00;;;-2.90
45850;BMP180;10739;52.198;20.908;2024-01-10T11:15:55;101846.00;;;-1.50
45850;BMP180;10739;52.198;20.908;2024-01-10T11:22:10;101836.00;;;-1.80
45850;BMP180;10739;52.198;20.908;2024-01-10T11:24:42;101844.00;;;-2.30
45850;BMP180;10739;52.198;20.908;2024-01-10T11:27:14;101850.00;;;-2.00
45850;BMP180;10739;52.198;20.908;2024-01-10T11:29:42;101835.00;;;-2.20
45850;BMP180;10739;52.198;20.908;2024-01-10T11:32:22;101834.00;;;-2.30
45850;BMP180;10739;52.198;20.908;2024-01-10T11:34:58;101839.00;;;-2.20
45850;BMP180;10739;52.198;20.908;2024-01-10T11:37:38;101840.00;;;-2.10
45850;BMP180;10739;52.198;20.908;2024-01-10T11:40:09;101832.00;;;-2.60
45850;BMP180;10739;52.198;20.908;2024-01-10T11:42:51;101821.00;;;-2.20
45850;BMP180;10739;52.198;20.908;2024-01-10T11:48:02;101819.00;;;-1.90
45850;BMP180;10739;52.198;20.908;2024-01-10T11:50:29;101810.00;;;-1.90
45850;BMP180;10739;52.198;20.908;2024-01-10T11:52:57;101820.00;;;-1.90
45850;BMP180;10739;52.198;20.908;2024-01-10T11:55:51;101809.00;;;-1.90
45850;BMP180;10739;52.198;20.908;2024-01-10T11:58:18;101805.00;;;-1.80
45850;BMP180;10739;52.198;20.908;2024-01-10T12:00:47;101804.00;;;-1.70
45850;BMP180;10739;52.198;20.908;2024-01-10T12:03:14;101797.00;;;-1.30
45850;BMP180;10739;52.198;20.908;2024-01-10T12:05:43;101804.00;;;-1.50
45850;BMP180;10739;52.198;20.908;2024-01-10T12:08:10;101791.00;;;-1.60
45850;BMP180;10739;52.198;20.908;2024-01-10T12:10:36;101804.00;;;-1.40
45850;BMP180;10739;52.198;20.908;2024-01-10T12:13:03;101800.00;;;-1.30
45850;BMP180;10739;52.198;20.908;2024-01-10T12:15:30;101801.00;;;-1.20
45850;BMP180;10739;52.198;20.908;2024-01-10T12:17:56;101802.00;;;-1.00
45850;BMP180;10739;52.198;20.908;2024-01-10T12:20:23;101800.00;;;-1.70
45850;BMP180;10739;52.198;20.908;2024-01-10T12:22:49;101783.00;;;-1.40
45850;BMP180;10739;52.198;20.908;2024-01-10T12:25:15;101790.00;;;-1.80
45850;BMP180;10739;52.198;20.908;2024-01-10T12:27:41;101797.00;;;-1.90
45850;BMP180;10739;52.198;20.908;2024-01-10T12:30:08;101788.00;;;-1.30
45850;BMP180;10739;52.198;20.908;2024-01-10T12:32:34;101789.00;;;-1.30
45850;BMP180;10739;52.198;20.908;2024-01-10T12:35:05;101794.00;;;-1.30
45850;BMP180;10739;52.198;20.908;2024-01-10T12:37:32;101793.00;;;-1.20
45850;BMP180;10739;52.198;20.908;2024-01-10T12:39:58;101801.00;;;-1.20
45850;BMP180;10739;52.198;20.908;2024-01-10T12:42:24;101801.00;;;-1.40
45850;BMP180;10739;52.198;20.908;2024-01-10T12:44:51;101812.00;;;-1.60
45850;BMP180;10739;52.198;20.908;2024-01-10T12:47:21;101803.00;;;-1.50
45850;BMP180;10739;52.198;20.908;2024-01-10T12:49:49;101796.00;;;-1.40
45850;BMP180;10739;52.198;20.908;2024-01-10T12:52:16;101800.00;;;-1.40
45850;BMP180;10739;52.198;20.908;2024-01-10T12:54:42;101797.00;;;-1.50
45850;BMP180;10739;52.198;20.908;2024-01-10T12:57:09;101794.00;;;-1.50
45850;BMP180;10739;52.198;20.908;2024-01-10T12:59:36;101786.00;;;-1.80
45850;BMP180;10739;52.198;20.908;2024-01-10T13:02:02;101780.00;;;-1.50
45850;BMP180;10739;52.198;20.908;2024-01-10T13:04:28;101775.00;;;-1.40
45850;BMP180;10739;52.198;20.908;2024-01-10T13:06:54;101781.00;;;-1.30
45850;BMP180;10739;52.198;20.908;2024-01-10T13:09:21;101780.00;;;-0.90
45850;BMP180;10739;52.198;20.908;2024-01-10T13:12:24;101769.00;;;-0.90
45850;BMP180;10739;52.198;20.908;2024-01-10T13:14:51;101768.00;;;-1.00
45850;BMP180;10739;52.198;20.908;2024-01-10T13:17:17;101782.00;;;-1.20
45850;BMP180;10739;52.198;20.908;2024-01-10T13:19:43;101771.00;;;-0.90
45850;BMP180;10739;52.198;20.908;2024-01-10T13:22:17;101772.00;;;-1.50
45850;BMP180;10739;52.198;20.908;2024-01-10T13:24:46;101775.00;;;-1.40
45850;BMP180;10739;52.198;20.908;2024-01-10T13:27:13;101780.00;;;-1.60
45850;BMP180;10739;52.198;20.908;2024-01-10T13:29:39;101770.00;;;-1.40
45850;BMP180;10739;52.198;20.908;2024-01-10T13:32:07;101769.00;;;-1.00
45850;BMP180;10739;52.198;20.908;2024-01-10T13:34:33;101759.00;;;-1.20
45850;BMP180;10739;52.198;20.908;2024-01-10T13:37:00;101765.00;;;-1.20
45850;BMP180;10739;52.198;20.908;2024-01-10T13:39:28;101770.00;;;-1.10
45850;BMP180;10739;52.198;20.908;2024-01-10T13:41:54;101760.00;;;-1.40
45850;BMP180;10739;52.198;20.908;2024-01-10T13:44:20;101761.00;;;-1.50
45850;BMP180;10739;52.198;20.908;2024-01-10T13:46:47;101758.00;;;-1.00
45850;BMP180;10739;52.198;20.908;2024-01-10T13:49:16;101753.00;;;-1.00
45850;BMP180;10739;52.198;20.908;2024-01-10T13:51:42;101744.00;;;-1.20
45850;BMP180;10739;52.198;20.908;2024-01-10T13:54:10;101741.00;;;-1.10
45850;BMP180;10739;52.198;20.908;2024-01-10T13:56:36;101752.00;;;-1.10